Etusivu
METAR-TAF:

METAR-TAF

Lentoasemat :

Ringkøbing-Skjern, Tanska

Leveyspiiri: 56-00N, Pituuspiiri: 008-21E, korkeus merenpinnasta: 5 m

Tämänhetkinen sää

Tämä raportti tehtiin 30 minuuttia sitten, kello 08.50 UTC
Tuuli 8 kn lounaasta
Lämpötila 14°C
Kosteus 72%
Ilmanpaine 1012 hPa
Näkyvyys 10 km tai enemmän
Hajanaisia pilviä 2000 ft:n korkeudessa
Hajonneita pilviä 3500 ft:n korkeudessa

METAR: EKVJ 030850Z 23008KT 9999 SCT020 BKN035 14/09 Q1012

Aika: 11:20 (09:20 UTC)

Sääennuste

Tämä raportti tehtiin 25 minuuttia sitten, kello 08.55 UTC
Ennuste voimassa 03. päivästä klo 09 UTC - 03. päivään klo 15 UTC
Tuuli 12 kn lännestä/lounaasta
Näkyvyys 10 km tai enemmän
Hajonneita pilviä 3000 ft:n korkeudessa
Tulossa
03. päivästä klo 13 UTC - 03. päivään klo 15 UTC
sadetta

TAF: EKVJ 030855Z 0309/0315 24012KT 9999 BKN030 BECMG 0313/0315 RA

Säähavainnot ja -ennusteet yli 4000 lentoasemalta (METAR- ja TAF-raportit).

Käytössä olevat sääasemat on merkitty karttaan keltaisilla ja punaisilla pisteillä.

Aseta hiiri pisteen päälle nähdäksesi sääaseman nimen.

Klikkaa sitten nähdäksesi säähavainnot ja -ennusteet.

Kartan vaihtaminen: klikkaa mustalla rastilla varustettuja vihreitä pisteitä, niin voit zoomata sisään; viivalla varustettua vihreää pistettä, niin voit zoomata ulos tai vihreitä nuolia, niin pääset viereisille kartoille.


METAR-TAF: